createdAt,value
2022-10-11T00:00:55.769Z,0.00
2022-10-11T00:01:55.908Z,0.00
2022-10-11T00:02:56.086Z,0.00
2022-10-11T00:03:56.207Z,0.00
2022-10-11T00:04:56.299Z,0.00
2022-10-11T00:05:56.449Z,0.00
2022-10-11T00:06:57.282Z,0.00
2022-10-11T00:07:56.666Z,0.00
2022-10-11T00:08:57.297Z,0.00
2022-10-11T00:09:56.920Z,0.00
2022-10-11T00:10:57.062Z,0.00
2022-10-11T00:11:57.217Z,0.00
2022-10-11T00:12:57.377Z,0.00
2022-10-11T00:13:57.607Z,0.00
2022-10-11T00:14:57.799Z,0.00
2022-10-11T00:15:57.826Z,0.00
2022-10-11T00:16:57.967Z,0.00
2022-10-11T00:18:01.031Z,0.00
2022-10-11T00:19:00.708Z,0.00
2022-10-11T00:19:58.436Z,0.00
2022-10-11T00:20:58.567Z,0.00
2022-10-11T00:21:58.708Z,0.00
2022-10-11T00:22:58.877Z,0.00
2022-10-11T00:23:59.016Z,0.00
2022-10-11T00:24:59.146Z,0.00
2022-10-11T00:25:59.316Z,0.00
2022-10-11T00:26:59.506Z,0.00
2022-10-11T00:27:59.623Z,0.00
2022-10-11T00:28:59.772Z,0.00
2022-10-11T00:29:59.925Z,0.00
2022-10-11T00:31:00.058Z,0.00
2022-10-11T00:32:00.200Z,0.00
2022-10-11T00:33:00.363Z,0.00
2022-10-11T00:34:00.553Z,0.00
2022-10-11T00:35:00.686Z,0.00
2022-10-11T00:36:00.840Z,0.00
2022-10-11T00:37:00.994Z,0.00
2022-10-11T00:38:01.117Z,0.00
2022-10-11T00:39:01.246Z,0.00
2022-10-11T00:40:01.354Z,0.00
2022-10-11T00:41:01.494Z,0.00
2022-10-11T00:42:01.632Z,0.00
2022-10-11T00:43:01.781Z,0.00
2022-10-11T00:44:01.902Z,0.00
2022-10-11T00:45:02.023Z,0.00
2022-10-11T00:46:02.504Z,0.00
2022-10-11T00:47:02.454Z,0.00
2022-10-11T00:48:02.446Z,0.00
2022-10-11T00:49:02.575Z,0.00
2022-10-11T00:50:02.702Z,0.00
2022-10-11T00:51:03.223Z,0.00
2022-10-11T00:52:03.021Z,0.00
2022-10-11T00:53:03.205Z,0.00
2022-10-11T00:54:03.290Z,0.00
2022-10-11T00:55:03.490Z,0.00
2022-10-11T00:56:04.089Z,0.00
2022-10-11T00:57:03.731Z,0.00
2022-10-11T00:58:03.882Z,0.00
2022-10-11T00:59:04.010Z,0.00
2022-10-11T01:00:04.132Z,0.00
2022-10-11T01:01:04.304Z,0.00
2022-10-11T01:02:04.422Z,0.00
2022-10-11T01:03:04.578Z,0.00
2022-10-11T01:04:04.731Z,0.00
2022-10-11T01:05:27.748Z,0.00
2022-10-11T01:06:06.408Z,0.00
2022-10-11T01:07:05.138Z,0.00
2022-10-11T01:08:05.301Z,0.00
2022-10-11T01:09:05.461Z,0.00
2022-10-11T01:10:05.539Z,0.00
2022-10-11T01:11:05.687Z,0.00
2022-10-11T01:12:05.848Z,0.00
2022-10-11T01:13:06.008Z,0.00
2022-10-11T01:14:06.149Z,0.00
2022-10-11T01:15:06.308Z,0.00
2022-10-11T01:16:07.055Z,0.00
2022-10-11T01:17:06.616Z,0.00
2022-10-11T01:18:06.749Z,0.00
2022-10-11T01:19:06.908Z,0.00
2022-10-11T01:20:07.036Z,0.00
2022-10-11T01:21:07.168Z,0.00
2022-10-11T01:22:07.314Z,0.00
2022-10-11T01:23:07.491Z,0.00
2022-10-11T01:24:08.857Z,0.00
2022-10-11T01:25:07.789Z,0.00
2022-10-11T01:26:08.282Z,0.00
2022-10-11T01:27:08.458Z,0.00
2022-10-11T01:28:08.363Z,0.00
2022-10-11T01:29:08.484Z,0.00
2022-10-11T01:30:08.558Z,0.00
2022-10-11T01:31:08.815Z,0.00
2022-10-11T01:32:08.833Z,0.00
2022-10-11T01:33:08.967Z,0.00
2022-10-11T01:34:09.120Z,0.00
2022-10-11T01:35:09.268Z,0.00
2022-10-11T01:36:09.393Z,0.00
2022-10-11T01:37:09.546Z,0.00
2022-10-11T01:38:09.688Z,0.00
2022-10-11T01:39:09.850Z,0.00
2022-10-11T01:40:09.997Z,0.00
2022-10-11T01:41:10.094Z,0.00
2022-10-11T01:42:10.963Z,0.00
2022-10-11T01:43:10.415Z,0.00
2022-10-11T01:44:10.575Z,0.00
2022-10-11T01:45:10.729Z,0.00
2022-10-11T01:46:10.886Z,0.00
2022-10-11T01:47:11.035Z,0.00
2022-10-11T01:48:11.176Z,0.00
2022-10-11T01:49:11.344Z,0.00
2022-10-11T01:50:11.503Z,0.00
2022-10-11T01:51:11.643Z,0.00
2022-10-11T01:52:11.787Z,0.00
2022-10-11T01:53:11.944Z,0.00
2022-10-11T01:54:12.151Z,0.00
2022-10-11T01:55:12.223Z,0.00
2022-10-11T01:56:12.373Z,0.00
2022-10-11T01:57:12.513Z,0.00
2022-10-11T01:58:12.640Z,0.00
2022-10-11T01:59:12.783Z,0.00
2022-10-11T02:00:12.946Z,0.00
2022-10-11T02:01:13.117Z,0.00
2022-10-11T02:02:13.208Z,0.00
2022-10-11T02:03:13.313Z,0.00
2022-10-11T02:04:13.494Z,0.00
2022-10-11T02:05:13.641Z,0.00
2022-10-11T02:06:13.748Z,0.00
2022-10-11T02:07:13.879Z,0.00
2022-10-11T02:08:14.010Z,0.00
2022-10-11T02:09:14.142Z,0.00
2022-10-11T02:10:14.268Z,0.00
2022-10-11T02:11:14.417Z,0.00
2022-10-11T02:12:14.544Z,0.00
2022-10-11T02:13:14.673Z,0.00
2022-10-11T02:14:14.828Z,0.00
2022-10-11T02:15:14.969Z,0.00
2022-10-11T02:16:15.090Z,0.00
2022-10-11T02:17:15.202Z,0.00
2022-10-11T02:18:15.319Z,0.00
2022-10-11T02:19:15.459Z,0.00
2022-10-11T02:20:15.619Z,0.00
2022-10-11T02:21:15.797Z,0.00
2022-10-11T02:22:15.978Z,0.00
2022-10-11T02:23:16.100Z,0.00
2022-10-11T02:24:16.225Z,0.00
2022-10-11T02:25:16.338Z,0.00
2022-10-11T02:26:16.480Z,0.00
2022-10-11T02:27:16.627Z,0.00
2022-10-11T02:28:16.790Z,0.00
2022-10-11T02:29:16.858Z,0.00
2022-10-11T02:30:17.002Z,0.00
2022-10-11T02:31:17.136Z,0.00
2022-10-11T02:32:17.255Z,0.00
2022-10-11T02:33:17.378Z,0.00
2022-10-11T02:34:18.235Z,0.00
2022-10-11T02:35:17.688Z,0.00
2022-10-11T02:36:17.846Z,0.00
2022-10-11T02:37:17.994Z,0.00
2022-10-11T02:38:18.118Z,0.00
2022-10-11T02:39:18.237Z,0.00
2022-10-11T02:40:18.367Z,0.00
2022-10-11T02:41:18.517Z,0.00
2022-10-11T02:42:18.657Z,0.00
2022-10-11T02:43:18.799Z,0.00
2022-10-11T02:44:18.917Z,0.00
2022-10-11T02:45:19.043Z,0.00
2022-10-11T02:46:19.219Z,0.00
2022-10-11T02:47:19.365Z,0.00
2022-10-11T02:48:19.540Z,0.00
2022-10-11T02:49:19.654Z,0.00
2022-10-11T02:50:19.777Z,0.00
2022-10-11T02:51:19.905Z,0.00
2022-10-11T02:52:20.056Z,0.00
2022-10-11T02:53:20.186Z,0.00
2022-10-11T02:54:20.318Z,0.00
2022-10-11T02:55:20.464Z,0.00
2022-10-11T02:56:20.611Z,0.00
2022-10-11T02:57:20.734Z,0.00
2022-10-11T02:58:20.865Z,0.00
2022-10-11T02:59:20.972Z,0.00
2022-10-11T03:00:21.100Z,0.00
2022-10-11T03:01:21.259Z,0.00
2022-10-11T03:02:21.334Z,0.00
2022-10-11T03:03:21.441Z,0.00
2022-10-11T03:04:21.574Z,0.00
2022-10-11T03:05:21.704Z,0.00
2022-10-11T03:06:21.841Z,0.00
2022-10-11T03:07:21.973Z,0.00
2022-10-11T03:08:22.105Z,0.00
2022-10-11T03:09:22.223Z,0.00
2022-10-11T03:10:22.581Z,0.00
2022-10-11T03:11:22.513Z,0.00
2022-10-11T03:12:22.643Z,0.00
2022-10-11T03:13:22.812Z,0.00
2022-10-11T03:14:22.982Z,0.00
2022-10-11T03:15:23.090Z,0.00
2022-10-11T03:16:23.263Z,0.00
2022-10-11T03:17:36.194Z,0.00
2022-10-11T03:18:24.491Z,0.00
2022-10-11T03:19:23.621Z,0.00
2022-10-11T03:20:23.791Z,0.00
2022-10-11T03:21:24.098Z,0.00
2022-10-11T03:22:24.069Z,0.00
2022-10-11T03:23:24.221Z,0.00
2022-10-11T03:24:24.358Z,0.00
2022-10-11T03:25:24.499Z,0.00
2022-10-11T03:26:24.640Z,0.00
2022-10-11T03:27:24.761Z,0.00
2022-10-11T03:28:24.925Z,0.00
2022-10-11T03:29:25.039Z,0.00
2022-10-11T03:30:25.182Z,0.00
2022-10-11T03:31:25.345Z,0.00
2022-10-11T03:32:25.487Z,0.00
2022-10-11T03:33:25.598Z,0.00
2022-10-11T03:34:25.717Z,0.00
2022-10-11T03:35:25.839Z,0.00
2022-10-11T03:36:25.964Z,0.00
2022-10-11T03:37:26.078Z,0.00
2022-10-11T03:38:26.218Z,0.00
2022-10-11T03:39:26.357Z,0.00
2022-10-11T03:40:26.488Z,0.00
2022-10-11T03:41:26.616Z,0.00
2022-10-11T03:42:26.744Z,0.00
2022-10-11T03:43:26.859Z,0.00
2022-10-11T03:44:26.977Z,0.00
2022-10-11T03:45:27.090Z,0.00
2022-10-11T03:46:27.239Z,0.00
2022-10-11T03:47:27.366Z,0.00
2022-10-11T03:48:27.486Z,0.00
2022-10-11T03:49:27.597Z,0.00
2022-10-11T03:50:27.735Z,0.00
2022-10-11T03:51:27.878Z,0.00
2022-10-11T03:52:28.008Z,0.00
2022-10-11T03:53:28.125Z,0.00
2022-10-11T03:54:28.268Z,0.00
2022-10-11T03:55:28.408Z,0.00
2022-10-11T03:56:28.521Z,0.00
2022-10-11T03:57:28.638Z,0.00
2022-10-11T03:58:28.767Z,0.00
2022-10-11T03:59:28.892Z,0.00
2022-10-11T04:00:29.009Z,0.00
2022-10-11T04:01:29.165Z,0.00
2022-10-11T04:02:29.295Z,0.00
2022-10-11T04:03:29.418Z,0.00
2022-10-11T04:04:29.536Z,0.00
2022-10-11T04:05:29.655Z,0.00
2022-10-11T04:06:29.784Z,0.00
2022-10-11T04:07:29.933Z,0.00
2022-10-11T04:08:30.055Z,0.00
2022-10-11T04:09:30.163Z,0.00
2022-10-11T04:10:30.325Z,0.00
2022-10-11T04:11:30.447Z,0.00
2022-10-11T04:12:30.571Z,0.00
2022-10-11T04:13:30.695Z,0.00
2022-10-11T04:14:30.825Z,0.00
2022-10-11T04:15:30.954Z,0.00
2022-10-11T04:16:31.072Z,0.00
2022-10-11T04:17:31.184Z,0.00
2022-10-11T04:18:31.314Z,0.00
2022-10-11T04:19:31.434Z,0.00
2022-10-11T04:20:31.602Z,0.00
2022-10-11T04:21:31.660Z,0.00
2022-10-11T04:22:33.304Z,0.00
2022-10-11T04:23:32.022Z,0.00
2022-10-11T04:24:32.183Z,0.00
2022-10-11T04:25:32.322Z,0.00
2022-10-11T04:26:32.480Z,0.00
2022-10-11T04:27:32.623Z,0.00
2022-10-11T04:28:32.791Z,0.00
2022-10-11T04:29:33.058Z,0.00
2022-10-11T04:30:32.969Z,0.00
2022-10-11T04:31:33.099Z,0.00
2022-10-11T04:32:33.223Z,0.00
2022-10-11T04:33:33.331Z,0.00
2022-10-11T04:34:33.450Z,0.00
2022-10-11T04:35:33.569Z,0.00
2022-10-11T04:36:33.713Z,0.00
2022-10-11T04:37:33.869Z,0.00
2022-10-11T04:38:34.031Z,0.00
2022-10-11T04:39:34.140Z,0.00
2022-10-11T04:40:34.269Z,0.00
2022-10-11T04:41:34.381Z,0.00
2022-10-11T04:42:34.516Z,0.00
2022-10-11T04:43:34.656Z,0.00
2022-10-11T04:44:34.790Z,0.00
2022-10-11T04:45:34.899Z,0.00
2022-10-11T04:46:35.024Z,0.00
2022-10-11T04:47:35.166Z,0.00
2022-10-11T04:48:35.267Z,0.00
2022-10-11T04:49:35.378Z,0.00
2022-10-11T04:50:35.506Z,0.00
2022-10-11T04:51:35.625Z,0.00
2022-10-11T04:52:35.770Z,0.00
2022-10-11T04:53:35.907Z,0.00
2022-10-11T04:54:36.037Z,0.00
2022-10-11T04:55:36.145Z,0.00
2022-10-11T04:56:36.266Z,0.00
2022-10-11T04:57:36.407Z,0.00
2022-10-11T04:58:37.295Z,0.00
2022-10-11T04:59:36.654Z,0.00
2022-10-11T05:00:36.774Z,0.00
2022-10-11T05:01:36.921Z,0.00
2022-10-11T05:02:37.074Z,0.00
2022-10-11T05:03:37.196Z,0.00
2022-10-11T05:04:37.346Z,0.00
2022-10-11T05:05:37.493Z,0.00
2022-10-11T05:06:37.644Z,0.00
2022-10-11T05:07:37.798Z,0.00
2022-10-11T05:08:37.942Z,0.00
2022-10-11T05:09:38.063Z,0.00
2022-10-11T05:10:38.255Z,0.00
2022-10-11T05:11:38.397Z,0.00
2022-10-11T05:12:38.522Z,0.00
2022-10-11T05:13:38.666Z,0.00
2022-10-11T05:14:38.804Z,0.00
2022-10-11T05:15:38.954Z,0.00
2022-10-11T05:16:39.092Z,0.00
2022-10-11T05:17:39.251Z,4.00
2022-10-11T05:18:39.413Z,4.00
2022-10-11T05:19:39.574Z,0.00
2022-10-11T05:20:39.719Z,4.00
2022-10-11T05:21:39.845Z,4.00
2022-10-11T05:22:39.994Z,4.00
2022-10-11T05:23:40.121Z,4.00
2022-10-11T05:24:40.502Z,4.00
2022-10-11T05:25:40.352Z,8.00
2022-10-11T05:26:40.491Z,8.00
2022-10-11T05:27:40.633Z,12.00
2022-10-11T05:28:40.852Z,12.00
2022-10-11T05:29:40.942Z,16.00
2022-10-11T05:30:41.072Z,20.00
2022-10-11T05:31:41.194Z,24.00
2022-10-11T05:32:41.330Z,28.00
2022-10-11T05:33:41.483Z,36.00
2022-10-11T05:34:41.609Z,40.00
2022-10-11T05:35:41.761Z,44.00
2022-10-11T05:36:41.895Z,52.00
2022-10-11T05:37:42.042Z,64.00
2022-10-11T05:38:42.201Z,76.00
2022-10-11T05:39:42.339Z,84.00
2022-10-11T05:40:42.470Z,96.00
2022-10-11T05:41:42.604Z,112.00
2022-10-11T05:42:42.741Z,124.00
2022-10-11T05:43:42.897Z,144.00
2022-10-11T05:44:43.023Z,160.00
2022-10-11T05:45:43.160Z,180.00
2022-10-11T05:46:43.285Z,196.00
2022-10-11T05:47:43.438Z,216.00
2022-10-11T05:48:43.632Z,240.00
2022-10-11T05:49:43.728Z,264.00
2022-10-11T05:50:43.859Z,292.00
2022-10-11T05:51:43.987Z,320.00
2022-10-11T05:52:44.129Z,344.00
2022-10-11T05:53:44.290Z,372.00
2022-10-11T05:54:44.466Z,400.00
2022-10-11T05:55:44.594Z,432.00
2022-10-11T05:56:44.736Z,464.00
2022-10-11T05:57:44.876Z,500.00
2022-10-11T05:58:45.048Z,540.00
2022-10-11T05:59:45.173Z,580.00
2022-10-11T06:00:45.310Z,616.00
2022-10-11T06:01:45.520Z,652.00
2022-10-11T06:02:45.675Z,692.00
2022-10-11T06:03:45.797Z,728.00
2022-10-11T06:04:45.876Z,772.00
2022-10-11T06:05:46.007Z,808.00
2022-10-11T06:06:46.165Z,852.00
2022-10-11T06:07:46.306Z,896.00
2022-10-11T06:08:46.416Z,932.00
2022-10-11T06:09:46.521Z,972.00
2022-10-11T06:10:46.697Z,1004.00
2022-10-11T06:11:46.833Z,1028.00
2022-10-11T06:12:46.924Z,1052.00
2022-10-11T06:13:47.072Z,1076.00
2022-10-11T06:14:47.186Z,1120.00
2022-10-11T06:15:47.345Z,1152.00
2022-10-11T06:16:47.507Z,1184.00
2022-10-11T06:17:47.667Z,1212.00
2022-10-11T06:18:47.808Z,1268.00
2022-10-11T06:19:47.957Z,1308.00
2022-10-11T06:20:48.052Z,1344.00
2022-10-11T06:21:48.214Z,1384.00
2022-10-11T06:22:56.161Z,1412.00
2022-10-11T06:23:48.525Z,1456.00
2022-10-11T06:24:48.694Z,1488.00
2022-10-11T06:25:49.559Z,1524.00
2022-10-11T06:26:48.987Z,1592.00
2022-10-11T06:27:49.134Z,1652.00
2022-10-11T06:28:49.424Z,1716.00
2022-10-11T06:29:49.474Z,1752.00
2022-10-11T06:30:49.666Z,1804.00
2022-10-11T06:31:49.763Z,1856.00
2022-10-11T06:32:49.890Z,1888.00
2022-10-11T06:33:50.025Z,1896.00
2022-10-11T06:34:50.156Z,1920.00
2022-10-11T06:35:50.312Z,1960.00
2022-10-11T06:36:50.417Z,1988.00
2022-10-11T06:37:50.550Z,2008.00
2022-10-11T06:38:50.732Z,2036.00
2022-10-11T06:39:50.873Z,2076.00
2022-10-11T06:40:50.963Z,2120.00
2022-10-11T06:41:51.133Z,2164.00
2022-10-11T06:42:51.204Z,2204.00
2022-10-11T06:43:51.351Z,2248.00
2022-10-11T06:44:51.502Z,2256.00
2022-10-11T06:45:51.671Z,2264.00
2022-10-11T06:46:51.843Z,2316.00
2022-10-11T06:47:53.464Z,2344.00
2022-10-11T06:48:52.192Z,2372.00
2022-10-11T06:49:52.436Z,2384.00
2022-10-11T06:50:59.881Z,2392.00
2022-10-11T06:51:53.621Z,2400.00
2022-10-11T06:52:52.713Z,2404.00
2022-10-11T06:53:52.863Z,2412.00
2022-10-11T06:54:53.000Z,2412.00
2022-10-11T06:55:53.140Z,2396.00
2022-10-11T06:56:53.288Z,2372.00
2022-10-11T06:57:53.420Z,2348.00
2022-10-11T06:58:53.574Z,2328.00
2022-10-11T06:59:53.730Z,2356.00
2022-10-11T07:00:53.968Z,2392.00
2022-10-11T07:01:54.007Z,2412.00
2022-10-11T07:02:54.169Z,2432.00
2022-10-11T07:03:54.361Z,2436.00
2022-10-11T07:04:54.566Z,2484.00
2022-10-11T07:05:57.880Z,2536.00
2022-10-11T07:06:55.717Z,2576.00
2022-10-11T07:07:54.856Z,2612.00
2022-10-11T07:08:54.974Z,2620.00
2022-10-11T07:09:55.138Z,2624.00
2022-10-11T07:10:55.308Z,2680.00
2022-10-11T07:11:55.417Z,2720.00
2022-10-11T07:12:55.578Z,2752.00
2022-10-11T07:13:55.627Z,2796.00
2022-10-11T07:14:55.766Z,2816.00
2022-10-11T07:15:55.956Z,2828.00
2022-10-11T07:16:56.023Z,2848.00
2022-10-11T07:17:56.179Z,2904.00
2022-10-11T07:19:00.143Z,2920.00
2022-10-11T07:19:56.470Z,2912.00
2022-10-11T07:20:56.603Z,2904.00
2022-10-11T07:21:56.748Z,2960.00
2022-10-11T07:22:56.846Z,3048.00
2022-10-11T07:23:56.994Z,3136.00
2022-10-11T07:24:57.173Z,3160.00
2022-10-11T07:25:57.292Z,3196.00
2022-10-11T07:26:57.467Z,3220.00
2022-10-11T07:27:57.546Z,3232.00
2022-10-11T07:28:57.755Z,3252.00
2022-10-11T07:29:57.888Z,3356.00
2022-10-11T07:30:58.045Z,3420.00
2022-10-11T07:31:58.324Z,3428.00
2022-10-11T07:32:58.296Z,3448.00
2022-10-11T07:33:58.437Z,3444.00
2022-10-11T07:34:58.652Z,3452.00
2022-10-11T07:35:58.796Z,3488.00
2022-10-11T07:36:58.935Z,3556.00
2022-10-11T07:37:59.107Z,3592.00
2022-10-11T07:38:59.265Z,3612.00
2022-10-11T07:39:59.437Z,3640.00
2022-10-11T07:40:59.591Z,3656.00
2022-10-11T07:41:59.815Z,3668.00
2022-10-11T07:42:59.853Z,3652.00
2022-10-11T07:44:00.025Z,3632.00
2022-10-11T07:45:00.142Z,3632.00
2022-10-11T07:46:00.242Z,3724.00
2022-10-11T07:47:00.374Z,3860.00
2022-10-11T07:48:00.663Z,3936.00
2022-10-11T07:49:00.645Z,4004.00
2022-10-11T07:50:00.812Z,4048.00
2022-10-11T07:51:00.925Z,4096.00
2022-10-11T07:52:01.054Z,4152.00
2022-10-11T07:53:01.192Z,4192.00
2022-10-11T07:54:04.773Z,4220.00
2022-10-11T07:55:02.454Z,4228.00
2022-10-11T07:56:01.932Z,4268.00
2022-10-11T07:57:01.757Z,4352.00
2022-10-11T07:58:01.913Z,4472.00
2022-10-11T07:59:02.059Z,4568.00
2022-10-11T08:00:02.222Z,4632.00
2022-10-11T08:01:02.474Z,4676.00
2022-10-11T08:02:02.652Z,4712.00
2022-10-11T08:03:02.642Z,4752.00
2022-10-11T08:04:02.812Z,4784.00
2022-10-11T08:05:02.941Z,4764.00
2022-10-11T08:06:03.515Z,4732.00
2022-10-11T08:07:03.266Z,4760.00
2022-10-11T08:08:03.432Z,4760.00
2022-10-11T08:09:03.586Z,4764.00
2022-10-11T08:10:03.734Z,4844.00
2022-10-11T08:11:03.906Z,4936.00
2022-10-11T08:12:04.067Z,5000.00
2022-10-11T08:13:04.673Z,5028.00
2022-10-11T08:14:04.319Z,5124.00
2022-10-11T08:15:04.420Z,5184.00
2022-10-11T08:16:04.971Z,5220.00
2022-10-11T08:17:04.690Z,5204.00
2022-10-11T08:18:04.884Z,5184.00
2022-10-11T08:19:05.141Z,5164.00
2022-10-11T08:20:05.217Z,5148.00
2022-10-11T08:21:05.351Z,5116.00
2022-10-11T08:22:05.521Z,5128.00
2022-10-11T08:23:05.695Z,5160.00
2022-10-11T08:24:05.788Z,5220.00
2022-10-11T08:25:05.927Z,5284.00
2022-10-11T08:26:06.478Z,5348.00
2022-10-11T08:27:06.301Z,5364.00
2022-10-11T08:28:06.418Z,5412.00
2022-10-11T08:29:06.508Z,5440.00
2022-10-11T08:30:06.660Z,5564.00
2022-10-11T08:31:06.818Z,5688.00
2022-10-11T08:32:06.939Z,5804.00
2022-10-11T08:33:08.713Z,5908.00
2022-10-11T08:34:07.234Z,6028.00
2022-10-11T08:35:07.379Z,6104.00
2022-10-11T08:36:08.428Z,6116.00
2022-10-11T08:37:07.649Z,6220.00
2022-10-11T08:38:07.836Z,6496.00
2022-10-11T08:39:07.917Z,6616.00
2022-10-11T08:40:08.089Z,6840.00
2022-10-11T08:41:08.285Z,7128.00
2022-10-11T08:42:08.391Z,7244.00
2022-10-11T08:43:08.465Z,7388.00
2022-10-11T08:44:08.565Z,7556.00
2022-10-11T08:45:11.533Z,7648.00
2022-10-11T08:46:09.500Z,7712.00
2022-10-11T08:47:09.149Z,7760.00
2022-10-11T08:48:09.116Z,8008.00
2022-10-11T08:49:09.260Z,8120.00
2022-10-11T08:50:09.399Z,8224.00
2022-10-11T08:51:09.539Z,8264.00
2022-10-11T08:52:09.686Z,8348.00
2022-10-11T08:53:09.789Z,8856.00
2022-10-11T08:54:09.939Z,11012.00
2022-10-11T08:55:10.085Z,13240.00
2022-10-11T08:56:10.167Z,13840.00
2022-10-11T08:57:10.307Z,14156.00
2022-10-11T08:58:10.463Z,14964.00
2022-10-11T08:59:10.566Z,14808.00
2022-10-11T09:00:10.746Z,14752.00
2022-10-11T09:01:10.909Z,15616.00
2022-10-11T09:02:12.019Z,16448.00
2022-10-11T09:03:11.055Z,14056.00
2022-10-11T09:04:11.219Z,14152.00
2022-10-11T09:05:11.400Z,13940.00
2022-10-11T09:06:11.476Z,13664.00
2022-10-11T09:07:11.546Z,14948.00
2022-10-11T09:08:11.696Z,17024.00
2022-10-11T09:09:11.839Z,21184.00
2022-10-11T09:10:12.017Z,28096.00
2022-10-11T09:11:12.096Z,33600.00
2022-10-11T09:12:12.256Z,28736.00
2022-10-11T09:13:12.349Z,27424.00
2022-10-11T09:14:12.497Z,27072.00
2022-10-11T09:15:12.651Z,25280.00
2022-10-11T09:16:12.767Z,24480.00
2022-10-11T09:17:12.888Z,20608.00
2022-10-11T09:18:13.009Z,25408.00
2022-10-11T09:19:13.097Z,25376.00
2022-10-11T09:20:13.229Z,24576.00
2022-10-11T09:21:13.336Z,24224.00
2022-10-11T09:22:13.466Z,28160.00
2022-10-11T09:23:13.569Z,22336.00
2022-10-11T09:24:13.697Z,20928.00
2022-10-11T09:25:13.797Z,14824.00
2022-10-11T09:26:13.945Z,14112.00
2022-10-11T09:27:14.059Z,15840.00
2022-10-11T09:28:14.205Z,21472.00
2022-10-11T09:29:14.245Z,24000.00
2022-10-11T09:30:14.427Z,23008.00
2022-10-11T09:31:14.546Z,21152.00
2022-10-11T09:32:14.639Z,16320.00
2022-10-11T09:33:14.777Z,19776.00
2022-10-11T09:34:14.898Z,18496.00
2022-10-11T09:35:14.995Z,20704.00
2022-10-11T09:36:15.102Z,20864.00
2022-10-11T09:37:15.197Z,18816.00
2022-10-11T09:38:15.367Z,25664.00
2022-10-11T09:39:15.508Z,21248.00
2022-10-11T09:40:15.639Z,20672.00
2022-10-11T09:41:15.740Z,28224.00
2022-10-11T09:42:15.878Z,26432.00
2022-10-11T09:43:15.978Z,21760.00
2022-10-11T09:44:16.125Z,30016.00
2022-10-11T09:45:16.239Z,28672.00
2022-10-11T09:46:16.360Z,20704.00
2022-10-11T09:47:16.577Z,13176.00
2022-10-11T09:48:16.559Z,12328.00
2022-10-11T09:49:16.683Z,12224.00
2022-10-11T09:50:16.787Z,11616.00
2022-10-11T09:51:16.875Z,11432.00
2022-10-11T09:52:17.035Z,11420.00
2022-10-11T09:53:17.117Z,11440.00
2022-10-11T09:54:17.265Z,11620.00
2022-10-11T09:55:19.731Z,11772.00
2022-10-11T09:56:17.475Z,11840.00
2022-10-11T09:57:17.577Z,11728.00
2022-10-11T09:58:17.761Z,10808.00
2022-10-11T09:59:17.861Z,10892.00
2022-10-11T10:00:17.984Z,11228.00
2022-10-11T10:01:18.127Z,12660.00
2022-10-11T10:02:18.201Z,13224.00
2022-10-11T10:03:18.296Z,13840.00
2022-10-11T10:04:18.468Z,13856.00
2022-10-11T10:05:18.554Z,14428.00
2022-10-11T10:06:18.770Z,13464.00
2022-10-11T10:07:18.825Z,17984.00
2022-10-11T10:08:18.938Z,33536.00
2022-10-11T10:09:19.084Z,35552.00
2022-10-11T10:10:19.170Z,31072.00
2022-10-11T10:11:19.268Z,29376.00
2022-10-11T10:12:19.425Z,28416.00
2022-10-11T10:13:19.538Z,30656.00
2022-10-11T10:14:19.675Z,29856.00
2022-10-11T10:15:19.759Z,29024.00
2022-10-11T10:16:19.912Z,28640.00
2022-10-11T10:17:20.021Z,28256.00
2022-10-11T10:18:20.129Z,28032.00
2022-10-11T10:19:20.302Z,29120.00
2022-10-11T10:20:20.398Z,32768.00
2022-10-11T10:21:20.509Z,38656.00
2022-10-11T10:22:20.645Z,43488.00
2022-10-11T10:23:20.755Z,46528.00
2022-10-11T10:24:20.915Z,40288.00
2022-10-11T10:25:21.046Z,61568.00
2022-10-11T10:26:21.155Z,47168.00
2022-10-11T10:27:21.252Z,55008.00
2022-10-11T10:28:21.436Z,72736.00
2022-10-11T10:29:21.578Z,71392.00
2022-10-11T10:30:21.634Z,72096.00
2022-10-11T10:31:21.781Z,67712.00
2022-10-11T10:32:21.880Z,66368.00
2022-10-11T10:33:21.990Z,60032.00
2022-10-11T10:34:22.108Z,57312.00
2022-10-11T10:35:22.281Z,55744.00
2022-10-11T10:36:22.369Z,47584.00
2022-10-11T10:37:22.479Z,34880.00
2022-10-11T10:38:26.377Z,44384.00
2022-10-11T10:39:22.740Z,61216.00
2022-10-11T10:40:22.860Z,64448.00
2022-10-11T10:41:22.963Z,65056.00
2022-10-11T10:42:23.100Z,62368.00
2022-10-11T10:43:23.261Z,64608.00
2022-10-11T10:44:23.361Z,65760.00
2022-10-11T10:45:23.531Z,60608.00
2022-10-11T10:46:23.633Z,50688.00
2022-10-11T10:47:23.739Z,39456.00
2022-10-11T10:48:23.879Z,45024.00
2022-10-11T10:49:48.833Z,43712.00
2022-10-11T10:50:25.161Z,39904.00
2022-10-11T10:51:24.319Z,41760.00
2022-10-11T10:52:24.417Z,36416.00
2022-10-11T10:53:24.571Z,46560.00
2022-10-11T10:54:25.271Z,54624.00
2022-10-11T10:55:24.815Z,58880.00
2022-10-11T10:56:24.920Z,59808.00
2022-10-11T10:57:25.035Z,60032.00
2022-10-11T10:58:25.122Z,58144.00
2022-10-11T10:59:25.309Z,56896.00
2022-10-11T11:00:25.414Z,59552.00
2022-10-11T11:01:25.609Z,61152.00
2022-10-11T11:02:40.228Z,67040.00
2022-10-11T11:03:26.731Z,70016.00
2022-10-11T11:04:25.870Z,65376.00
2022-10-11T11:05:26.031Z,60416.00
2022-10-11T11:06:26.143Z,60224.00
2022-10-11T11:07:26.284Z,63424.00
2022-10-11T11:08:26.363Z,65920.00
2022-10-11T11:09:26.592Z,67040.00
2022-10-11T11:10:26.655Z,67232.00
2022-10-11T11:11:26.794Z,65344.00
2022-10-11T11:12:26.946Z,61504.00
2022-10-11T11:13:27.083Z,61248.00
2022-10-11T11:14:27.234Z,62080.00
2022-10-11T11:15:32.581Z,63648.00
2022-10-11T11:16:28.503Z,65888.00
2022-10-11T11:17:27.664Z,63776.00
2022-10-11T11:18:27.753Z,63392.00
2022-10-11T11:19:27.881Z,67680.00
2022-10-11T11:20:27.984Z,69088.00
2022-10-11T11:21:28.143Z,69504.00
2022-10-11T11:22:32.570Z,70496.00
2022-10-11T11:23:28.464Z,70752.00
2022-10-11T11:24:28.487Z,69856.00
2022-10-11T11:25:28.596Z,70112.00
2022-10-11T11:26:28.738Z,71712.00
2022-10-11T11:27:28.898Z,72448.00
2022-10-11T11:28:29.063Z,72320.00
2022-10-11T11:29:29.116Z,73536.00
2022-10-11T11:30:29.284Z,74112.00
2022-10-11T11:31:29.405Z,76256.00
2022-10-11T11:32:29.506Z,76704.00
2022-10-11T11:33:29.616Z,74272.00
2022-10-11T11:34:29.770Z,78592.00
2022-10-11T11:35:29.857Z,79168.00
2022-10-11T11:36:29.995Z,78112.00
2022-10-11T11:37:30.106Z,75456.00
2022-10-11T11:38:30.197Z,72896.00
2022-10-11T11:39:30.346Z,70880.00
2022-10-11T11:40:30.466Z,77600.00
2022-10-11T11:41:30.596Z,78592.00
2022-10-11T11:42:30.685Z,78912.00
2022-10-11T11:43:30.850Z,80320.00
2022-10-11T11:44:30.959Z,83104.00
2022-10-11T11:45:31.065Z,81408.00
2022-10-11T11:46:31.360Z,81376.00
2022-10-11T11:47:31.792Z,77088.00
2022-10-11T11:48:31.488Z,80544.00
2022-10-11T11:49:31.609Z,84928.00
2022-10-11T11:50:33.783Z,88000.00
2022-10-11T11:51:31.867Z,81600.00
2022-10-11T11:52:31.979Z,69888.00
2022-10-11T11:53:32.087Z,78720.00
2022-10-11T11:54:32.248Z,78464.00
2022-10-11T11:55:32.338Z,82784.00
2022-10-11T11:56:32.447Z,82432.00
2022-10-11T11:57:32.584Z,84960.00
2022-10-11T11:58:32.692Z,84352.00
2022-10-11T11:59:32.866Z,90112.00
2022-10-11T12:00:32.935Z,93088.00
2022-10-11T12:01:33.108Z,91968.00
2022-10-11T12:02:33.212Z,88352.00
2022-10-11T12:03:34.456Z,91072.00
2022-10-11T12:04:33.439Z,93472.00
2022-10-11T12:05:33.590Z,94912.00
2022-10-11T12:06:33.669Z,89728.00
2022-10-11T12:07:33.780Z,86272.00
2022-10-11T12:08:33.892Z,86336.00
2022-10-11T12:09:34.070Z,88736.00
2022-10-11T12:10:34.163Z,86720.00
2022-10-11T12:11:35.552Z,87488.00
2022-10-11T12:12:34.373Z,89856.00
2022-10-11T12:13:34.542Z,91104.00
2022-10-11T12:14:34.645Z,91168.00
2022-10-11T12:15:34.761Z,94656.00
2022-10-11T12:16:34.869Z,94240.00
2022-10-11T12:17:35.030Z,93472.00
2022-10-11T12:18:39.255Z,91264.00
2022-10-11T12:19:36.290Z,91232.00
2022-10-11T12:20:35.389Z,91424.00
2022-10-11T12:21:35.551Z,91520.00
2022-10-11T12:22:35.694Z,93792.00
2022-10-11T12:23:35.792Z,97760.00
2022-10-11T12:24:35.903Z,95648.00
2022-10-11T12:25:36.065Z,93312.00
2022-10-11T12:26:36.152Z,93920.00
2022-10-11T12:27:36.314Z,92672.00
2022-10-11T12:28:36.497Z,93344.00
2022-10-11T12:29:36.555Z,91456.00
2022-10-11T12:30:36.667Z,89376.00
2022-10-11T12:31:36.778Z,87392.00
2022-10-11T12:32:36.871Z,91264.00